Time;durP1;ratioP1;P1;durP2;ratioP2;P2;SDS_P1;SDS_P2;PMS_P1;PMS_P2;Temp;Humidity;BMP_temperature;BMP_pressure;BME280_temperature;BME280_humidity;BME280_pressure;Samples;Min_cycle;Max_cycle;Signal;HPM_P1;HPM_P2
2021/08/10 00:01:12;;;;;;;6.43;5.15;;;;;;;;;;5057337;28;20102;-79
2021/08/10 00:03:38;;;;;;;9.18;5.30;;;;;;;;;;5057028;28;20017;-79
2021/08/10 00:06:04;;;;;;;5.53;5.00;;;;;;;;;;5056982;28;20033;-79
2021/08/10 00:08:31;;;;;;;11.50;5.07;;;;;;;;;;5056661;28;20438;-78
2021/08/10 00:10:57;;;;;;;5.40;4.75;;;;;;;;;;5055651;28;20036;-79
2021/08/10 00:13:23;;;;;;;14.50;4.88;;;;;;;;;;5057085;28;20025;-79
2021/08/10 00:15:49;;;;;;;9.07;4.55;;;;;;;;;;5056440;28;20094;-75
2021/08/10 00:18:15;;;;;;;8.68;5.25;;;;;;;;;;5056494;28;20021;-75
2021/08/10 00:20:41;;;;;;;12.02;4.55;;;;;;;;;;5056428;28;20021;-75
2021/08/10 00:23:07;;;;;;;17.17;5.03;;;;;;;;;;5056364;28;20067;-76
2021/08/10 00:25:33;;;;;;;8.82;5.10;;;;;;;;;;5056130;28;20150;-75
2021/08/10 00:28:00;;;;;;;5.63;4.57;;;;;;;;;;5056208;28;20025;-74
2021/08/10 00:30:26;;;;;;;4.75;4.25;;;;;;;;;;5056799;28;20033;-75
2021/08/10 00:32:52;;;;;;;8.00;4.97;;;;;;;;;;5056243;28;20096;-75
2021/08/10 00:35:18;;;;;;;11.95;4.53;;;;;;;;;;5056371;28;20026;-75
2021/08/10 00:37:45;;;;;;;5.22;4.72;;;;;;;;;;5055908;28;20143;-75
2021/08/10 00:40:11;;;;;;;12.50;5.55;;;;;;;;;;5056028;28;20026;-75
2021/08/10 00:42:37;;;;;;;9.20;5.22;;;;;;;;;;5056564;28;20026;-75
2021/08/10 00:45:04;;;;;;;11.15;4.45;;;;;;;;;;5056134;28;20111;-74
2021/08/10 00:47:30;;;;;;;6.82;4.60;;;;;;;;;;5055776;28;20378;-75
2021/08/10 00:49:56;;;;;;;6.60;4.40;;;;;;;;;;5055784;28;20029;-75
2021/08/10 00:52:22;;;;;;;7.72;4.80;;;;;;;;;;5055956;28;20032;-75
2021/08/10 00:54:48;;;;;;;5.65;4.63;;;;;;;;;;5055501;28;20045;-75
2021/08/10 00:57:14;;;;;;;5.85;4.80;;;;;;;;;;5055972;28;20505;-75
2021/08/10 00:59:40;;;;;;;9.00;4.32;;;;;;;;;;5055986;28;20467;-74
2021/08/10 01:02:06;;;;;;;8.93;4.32;;;;;;;;;;5055208;28;20017;-75
2021/08/10 01:04:32;;;;;;;4.78;4.38;;;;;;;;;;5055840;28;20469;-75
2021/08/10 01:07:04;;;;;;;5.05;4.22;;;;;;;;;;5055551;28;20056;-75
2021/08/10 01:09:50;;;;;;;7.55;5.28;;;;;;;;;;5056274;28;20028;-75
2021/08/10 01:12:16;;;;;;;8.32;4.40;;;;;;;;;;5041181;28;20029;-75
2021/08/10 01:14:47;;;;;;;9.55;5.13;;;;;;;;;;5055698;28;20375;-75
2021/08/10 01:17:18;;;;;;;6.32;4.65;;;;;;;;;;5055213;28;20021;-75
2021/08/10 01:19:52;;;;;;;5.35;4.10;;;;;;;;;;5054851;28;20552;-75
2021/08/10 01:22:18;;;;;;;9.20;4.90;;;;;;;;;;5055704;28;20029;-75
2021/08/10 01:24:45;;;;;;;5.00;4.50;;;;;;;;;;5055520;28;20494;-75
2021/08/10 01:27:31;;;;;;;4.57;4.18;;;;;;;;;;5055117;28;20071;-75
2021/08/10 01:30:17;;;;;;;7.28;4.38;;;;;;;;;;5040276;28;20025;-75
2021/08/10 01:32:45;;;;;;;6.85;4.32;;;;;;;;;;5040779;28;20044;-75
2021/08/10 01:35:11;;;;;;;8.68;4.72;;;;;;;;;;5055492;28;20470;-75
2021/08/10 01:37:38;;;;;;;6.07;4.40;;;;;;;;;;5054846;28;20446;-75
2021/08/10 01:40:05;;;;;;;11.40;4.47;;;;;;;;;;5055252;28;20033;-75
2021/08/10 01:42:31;;;;;;;13.02;4.82;;;;;;;;;;5054748;28;20052;-75
2021/08/10 01:45:00;;;;;;;9.02;4.38;;;;;;;;;;5054752;28;20021;-75
2021/08/10 01:47:27;;;;;;;8.20;4.65;;;;;;;;;;5054590;28;20387;-75
2021/08/10 01:49:53;;;;;;;18.42;5.43;;;;;;;;;;5054994;28;20091;-75
2021/08/10 01:52:22;;;;;;;11.38;4.32;;;;;;;;;;5055097;28;20074;-75
2021/08/10 01:54:48;;;;;;;5.32;4.07;;;;;;;;;;5054816;28;20136;-75
2021/08/10 01:57:14;;;;;;;9.50;4.53;;;;;;;;;;5054695;28;20032;-76
2021/08/10 01:59:40;;;;;;;4.53;4.10;;;;;;;;;;5054562;28;20381;-75
2021/08/10 02:02:07;;;;;;;10.13;4.75;;;;;;;;;;5055013;28;20032;-75
2021/08/10 02:04:33;;;;;;;10.27;4.15;;;;;;;;;;5055089;28;20400;-75
2021/08/10 02:06:59;;;;;;;5.28;4.35;;;;;;;;;;5055007;28;20025;-75
2021/08/10 02:09:25;;;;;;;6.20;4.50;;;;;;;;;;5054456;28;20025;-75
2021/08/10 02:11:51;;;;;;;6.07;4.57;;;;;;;;;;5054591;28;20064;-75
2021/08/10 02:14:20;;;;;;;4.82;4.32;;;;;;;;;;5054839;28;20492;-75
2021/08/10 02:16:46;;;;;;;5.05;4.55;;;;;;;;;;5054314;28;20467;-75
2021/08/10 02:19:12;;;;;;;4.05;3.75;;;;;;;;;;5054275;28;20367;-75
2021/08/10 02:21:39;;;;;;;5.20;3.97;;;;;;;;;;5054336;28;20032;-75
2021/08/10 02:24:09;;;;;;;6.10;5.05;;;;;;;;;;5054513;28;20028;-75
2021/08/10 02:26:38;;;;;;;7.43;3.85;;;;;;;;;;5054177;28;20025;-75
2021/08/10 02:29:04;;;;;;;8.60;3.80;;;;;;;;;;5054133;28;20478;-75
2021/08/10 02:31:30;;;;;;;6.40;3.72;;;;;;;;;;5054502;28;20175;-75
2021/08/10 02:33:56;;;;;;;4.15;3.75;;;;;;;;;;5057425;28;20032;-76
2021/08/10 02:36:22;;;;;;;7.22;4.32;;;;;;;;;;5058363;28;20029;-76
2021/08/10 02:38:48;;;;;;;7.47;4.57;;;;;;;;;;5058437;28;20033;-75
2021/08/10 02:41:16;;;;;;;4.60;4.13;;;;;;;;;;5057887;28;20025;-75
2021/08/10 02:43:42;;;;;;;8.85;4.63;;;;;;;;;;5058300;28;20028;-75
2021/08/10 02:46:08;;;;;;;5.05;3.97;;;;;;;;;;5057923;28;20074;-75
2021/08/10 02:48:34;;;;;;;8.32;4.55;;;;;;;;;;5057926;28;20029;-76
2021/08/10 02:51:00;;;;;;;9.13;4.72;;;;;;;;;;5057970;28;20474;-75
2021/08/10 02:53:26;;;;;;;5.78;4.75;;;;;;;;;;5058162;28;20025;-76
2021/08/10 02:55:57;;;;;;;8.23;3.80;;;;;;;;;;5058379;28;20059;-75
2021/08/10 02:58:25;;;;;;;7.38;4.65;;;;;;;;;;5058412;28;20032;-74
2021/08/10 03:01:07;;;;;;;8.02;5.22;;;;;;;;;;5057824;28;20028;-74
2021/08/10 03:03:33;;;;;;;6.90;4.10;;;;;;;;;;5058046;28;20033;-74
2021/08/10 03:05:59;;;;;;;4.50;3.88;;;;;;;;;;5058063;28;20055;-75
2021/08/10 03:08:27;;;;;;;11.07;6.75;;;;;;;;;;5057664;28;20057;-75
2021/08/10 03:10:54;;;;;;;37.80;13.70;;;;;;;;;;5058231;28;20124;-74
2021/08/10 03:13:20;;;;;;;54.42;21.52;;;;;;;;;;5058116;28;20107;-75
2021/08/10 03:15:46;;;;;;;94.53;30.52;;;;;;;;;;5057425;28;20032;-75
2021/08/10 03:18:12;;;;;;;92.95;30.15;;;;;;;;;;5057893;28;20070;-75
2021/08/10 03:20:39;;;;;;;56.75;22.55;;;;;;;;;;5057213;28;20036;-74
2021/08/10 03:23:05;;;;;;;61.95;20.45;;;;;;;;;;5057468;28;20061;-78
2021/08/10 03:25:31;;;;;;;44.67;16.40;;;;;;;;;;5055916;28;20356;-78
2021/08/10 03:27:57;;;;;;;48.47;18.90;;;;;;;;;;5056483;28;20484;-78
2021/08/10 03:30:23;;;;;;;35.35;13.18;;;;;;;;;;5057766;28;20041;-77
2021/08/10 03:32:50;;;;;;;26.75;14.15;;;;;;;;;;5057670;28;20037;-78
2021/08/10 03:35:16;;;;;;;43.42;15.23;;;;;;;;;;5057164;28;20025;-76
2021/08/10 03:37:42;;;;;;;30.08;13.52;;;;;;;;;;5057339;28;20021;-76
2021/08/10 03:40:09;;;;;;;34.63;11.90;;;;;;;;;;5056180;28;20075;-76
2021/08/10 03:42:35;;;;;;;26.17;11.15;;;;;;;;;;5057527;28;20017;-77
2021/08/10 03:45:01;;;;;;;26.10;12.05;;;;;;;;;;5055828;28;20370;-76
2021/08/10 03:47:27;;;;;;;43.42;14.77;;;;;;;;;;5057148;28;20033;-76
2021/08/10 03:49:53;;;;;;;42.58;14.40;;;;;;;;;;5057034;28;20067;-77
2021/08/10 03:52:19;;;;;;;35.53;15.43;;;;;;;;;;5056715;28;20025;-77
2021/08/10 03:54:45;;;;;;;30.75;11.93;;;;;;;;;;5057080;28;20056;-78
2021/08/10 03:57:15;;;;;;;18.95;10.75;;;;;;;;;;5057373;28;20025;-76
2021/08/10 03:59:41;;;;;;;25.83;11.15;;;;;;;;;;5057081;28;20048;-76
2021/08/10 04:02:07;;;;;;;24.55;9.40;;;;;;;;;;5056766;28;20025;-76
2021/08/10 04:04:33;;;;;;;20.55;9.65;;;;;;;;;;5056891;28;20395;-75
2021/08/10 04:06:59;;;;;;;20.25;9.85;;;;;;;;;;5056413;28;20095;-76
2021/08/10 04:09:25;;;;;;;25.17;9.23;;;;;;;;;;5056484;28;20021;-76
2021/08/10 04:11:51;;;;;;;18.90;8.38;;;;;;;;;;5056501;28;20037;-76
2021/08/10 04:14:19;;;;;;;22.42;11.55;;;;;;;;;;5056603;28;20021;-76
2021/08/10 04:16:48;;;;;;;17.90;9.40;;;;;;;;;;5056371;28;20073;-76
2021/08/10 04:19:15;;;;;;;16.67;7.75;;;;;;;;;;5056351;28;20029;-78
2021/08/10 04:21:41;;;;;;;13.20;8.27;;;;;;;;;;5056328;28;20083;-78
2021/08/10 04:24:07;;;;;;;16.00;8.32;;;;;;;;;;5056376;28;20036;-76
2021/08/10 04:26:33;;;;;;;17.17;10.35;;;;;;;;;;5056292;28;20063;-76
2021/08/10 04:29:00;;;;;;;12.18;8.52;;;;;;;;;;5056084;28;20032;-76
2021/08/10 04:31:26;;;;;;;21.77;8.05;;;;;;;;;;5055858;28;20044;-77
2021/08/10 04:33:52;;;;;;;15.40;8.15;;;;;;;;;;5056292;28;20108;-77
2021/08/10 04:36:18;;;;;;;16.67;7.72;;;;;;;;;;5056125;28;20028;-77
2021/08/10 04:38:44;;;;;;;11.98;7.40;;;;;;;;;;5056107;28;20025;-76
2021/08/10 04:41:10;;;;;;;20.30;7.55;;;;;;;;;;5055943;28;20025;-76
2021/08/10 04:43:36;;;;;;;14.45;7.85;;;;;;;;;;5056028;28;20028;-76
2021/08/10 04:46:02;;;;;;;11.20;7.95;;;;;;;;;;5056105;28;20025;-76
2021/08/10 04:48:28;;;;;;;17.77;6.22;;;;;;;;;;5055584;28;20032;-76
2021/08/10 04:50:54;;;;;;;15.05;7.63;;;;;;;;;;5055851;28;20029;-76
2021/08/10 04:53:21;;;;;;;17.85;7.30;;;;;;;;;;5056333;28;20083;-76
2021/08/10 04:55:47;;;;;;;11.70;6.78;;;;;;;;;;5055755;28;20398;-76
2021/08/10 04:58:13;;;;;;;11.32;6.40;;;;;;;;;;5055717;28;20083;-76
2021/08/10 05:00:39;;;;;;;15.93;7.88;;;;;;;;;;5055629;28;20037;-76
2021/08/10 05:03:05;;;;;;;13.43;6.50;;;;;;;;;;5055519;28;20029;-77
2021/08/10 05:05:31;;;;;;;11.10;7.35;;;;;;;;;;5055263;28;20052;-77
2021/08/10 05:07:57;;;;;;;10.82;6.70;;;;;;;;;;5056055;28;20044;-77
2021/08/10 05:10:23;;;;;;;8.55;6.07;;;;;;;;;;5055429;28;20048;-77
2021/08/10 05:12:49;;;;;;;8.95;6.13;;;;;;;;;;5055556;28;20455;-77
2021/08/10 05:15:15;;;;;;;11.13;5.68;;;;;;;;;;5055368;28;20025;-76
2021/08/10 05:17:41;;;;;;;15.20;7.35;;;;;;;;;;5055305;28;20051;-76
2021/08/10 05:20:08;;;;;;;13.73;8.68;;;;;;;;;;5054996;28;20033;-76
2021/08/10 05:22:35;;;;;;;11.32;8.27;;;;;;;;;;5055212;28;20455;-76
2021/08/10 05:25:05;;;;;;;8.02;6.70;;;;;;;;;;5055461;28;20489;-76
2021/08/10 05:27:31;;;;;;;14.75;6.40;;;;;;;;;;5055072;28;20021;-77
2021/08/10 05:29:57;;;;;;;12.15;7.10;;;;;;;;;;5055192;28;20031;-76
2021/08/10 05:32:23;;;;;;;9.85;7.35;;;;;;;;;;5055001;28;20032;-76
2021/08/10 05:34:49;;;;;;;11.18;7.35;;;;;;;;;;5055148;28;20430;-76
2021/08/10 05:37:15;;;;;;;13.80;6.70;;;;;;;;;;5055108;28;20049;-76
2021/08/10 05:39:41;;;;;;;8.75;6.53;;;;;;;;;;5054961;28;20031;-76
2021/08/10 05:42:07;;;;;;;16.05;7.10;;;;;;;;;;5055006;28;20024;-76
2021/08/10 05:44:33;;;;;;;6.47;5.75;;;;;;;;;;5054921;28;20107;-76
2021/08/10 05:46:59;;;;;;;9.15;6.68;;;;;;;;;;5054208;28;20037;-77
2021/08/10 05:49:25;;;;;;;10.57;5.68;;;;;;;;;;5052788;28;20025;-76
2021/08/10 05:51:51;;;;;;;9.27;7.03;;;;;;;;;;5054036;28;20486;-77
2021/08/10 05:54:17;;;;;;;6.65;5.93;;;;;;;;;;5054218;28;20052;-76
2021/08/10 05:56:43;;;;;;;12.25;6.78;;;;;;;;;;5054216;28;20111;-77
2021/08/10 05:59:10;;;;;;;12.98;6.95;;;;;;;;;;5065136;28;20021;-78
2021/08/10 06:01:36;;;;;;;16.33;7.68;;;;;;;;;;5066185;28;20151;-81
2021/08/10 06:04:03;;;;;;;11.23;6.28;;;;;;;;;;5054105;28;20025;-84
2021/08/10 06:06:29;;;;;;;10.65;6.78;;;;;;;;;;5054109;28;20128;-78
2021/08/10 06:08:55;;;;;;;8.02;6.18;;;;;;;;;;5052401;28;20047;-76
2021/08/10 06:11:21;;;;;;;7.68;6.88;;;;;;;;;;5054029;28;20040;-76
2021/08/10 06:13:47;;;;;;;10.70;7.93;;;;;;;;;;5053931;28;20029;-76
2021/08/10 06:16:13;;;;;;;10.38;6.50;;;;;;;;;;5053444;28;20050;-79
2021/08/10 06:18:39;;;;;;;5.90;5.32;;;;;;;;;;5051906;28;20440;-76
2021/08/10 06:21:05;;;;;;;10.32;5.93;;;;;;;;;;5054173;28;20071;-77
2021/08/10 06:23:31;;;;;;;23.70;7.00;;;;;;;;;;5054135;28;20467;-76
2021/08/10 06:25:57;;;;;;;23.90;6.45;;;;;;;;;;5053483;28;20425;-78
2021/08/10 06:28:24;;;;;;;8.23;5.88;;;;;;;;;;5064884;28;20020;-78
2021/08/10 06:30:50;;;;;;;12.52;7.07;;;;;;;;;;5052252;28;20079;-76
2021/08/10 06:33:16;;;;;;;7.25;5.57;;;;;;;;;;5053609;28;20471;-79
2021/08/10 06:35:42;;;;;;;11.07;5.85;;;;;;;;;;5053630;28;20021;-76
2021/08/10 06:38:08;;;;;;;6.20;5.60;;;;;;;;;;5054348;28;20029;-73
2021/08/10 06:40:34;;;;;;;9.43;4.97;;;;;;;;;;5068421;28;20033;-76
2021/08/10 06:43:00;;;;;;;11.35;5.97;;;;;;;;;;5073827;28;20521;-78
2021/08/10 06:45:26;;;;;;;6.00;5.25;;;;;;;;;;5073802;28;20024;-73
2021/08/10 06:47:52;;;;;;;8.02;5.70;;;;;;;;;;5064940;28;20021;-76
2021/08/10 06:50:19;;;;;;;8.18;5.22;;;;;;;;;;5048321;28;20116;-78
2021/08/10 06:52:47;;;;;;;6.18;5.18;;;;;;;;;;5052413;28;20017;-76
2021/08/10 06:55:16;;;;;;;8.02;5.95;;;;;;;;;;5050809;28;20052;-76
2021/08/10 06:57:43;;;;;;;15.70;6.35;;;;;;;;;;5053886;28;20043;-85
2021/08/10 07:00:09;;;;;;;11.48;5.93;;;;;;;;;;5062757;28;20028;-78
2021/08/10 07:02:35;;;;;;;9.27;5.85;;;;;;;;;;5057918;28;20074;-79
2021/08/10 07:05:01;;;;;;;8.75;6.40;;;;;;;;;;5071045;28;20475;-82
2021/08/10 07:07:28;;;;;;;17.52;6.20;;;;;;;;;;5053191;28;20104;-77
2021/08/10 07:09:54;;;;;;;11.32;5.07;;;;;;;;;;5052184;28;20033;-75
2021/08/10 07:12:20;;;;;;;11.05;5.38;;;;;;;;;;5052719;28;20116;-75
2021/08/10 07:14:46;;;;;;;6.05;4.80;;;;;;;;;;5053405;28;20065;-75
2021/08/10 07:17:12;;;;;;;6.57;5.35;;;;;;;;;;5068255;28;20025;-76
2021/08/10 07:19:38;;;;;;;8.20;5.40;;;;;;;;;;5074537;28;20070;-76
2021/08/10 07:22:04;;;;;;;14.20;6.28;;;;;;;;;;5076336;28;20371;-76
2021/08/10 07:24:30;;;;;;;5.38;4.82;;;;;;;;;;5076673;28;20110;-76
2021/08/10 07:26:56;;;;;;;5.47;4.53;;;;;;;;;;5075720;28;20025;-75
2021/08/10 07:29:22;;;;;;;8.63;4.93;;;;;;;;;;5061495;28;20386;-75
2021/08/10 07:31:48;;;;;;;16.08;5.13;;;;;;;;;;5056586;28;20047;-79
2021/08/10 07:34:14;;;;;;;9.45;4.70;;;;;;;;;;5057214;28;20554;-77
2021/08/10 07:36:41;;;;;;;6.80;4.70;;;;;;;;;;5055013;28;20021;-75
2021/08/10 07:39:07;;;;;;;6.55;4.40;;;;;;;;;;5068716;28;20025;-77
2021/08/10 07:41:33;;;;;;;8.88;4.88;;;;;;;;;;5076917;28;20020;-75
2021/08/10 07:43:59;;;;;;;20.42;4.65;;;;;;;;;;5077277;28;20025;-80
2021/08/10 07:46:25;;;;;;;8.20;4.80;;;;;;;;;;5073227;28;20036;-77
2021/08/10 07:48:51;;;;;;;5.15;4.72;;;;;;;;;;5074155;28;20028;-76
2021/08/10 07:51:17;;;;;;;23.45;6.13;;;;;;;;;;5074201;28;20032;-82
2021/08/10 07:53:44;;;;;;;15.82;5.47;;;;;;;;;;5061642;28;20032;-78
2021/08/10 07:56:10;;;;;;;12.02;5.32;;;;;;;;;;5067619;28;20052;-79
2021/08/10 07:58:36;;;;;;;12.75;5.18;;;;;;;;;;5076492;28;20024;-78
2021/08/10 08:01:04;;;;;;;8.07;5.63;;;;;;;;;;5076098;28;20020;-77
2021/08/10 08:03:30;;;;;;;9.75;4.40;;;;;;;;;;5077489;28;20068;-77
2021/08/10 08:05:56;;;;;;;9.75;5.38;;;;;;;;;;5067352;28;20032;-75
2021/08/10 08:08:23;;;;;;;5.68;4.25;;;;;;;;;;5060427;28;20032;-78
2021/08/10 08:10:50;;;;;;;16.23;4.38;;;;;;;;;;5075370;28;20067;-78
2021/08/10 08:13:16;;;;;;;13.23;4.45;;;;;;;;;;5076341;28;20031;-83
2021/08/10 08:15:43;;;;;;;11.50;4.40;;;;;;;;;;5075944;28;20056;-76
2021/08/10 08:18:09;;;;;;;5.63;4.43;;;;;;;;;;5076417;28;20035;-77
2021/08/10 08:20:36;;;;;;;6.25;3.90;;;;;;;;;;5076366;28;20473;-76
2021/08/10 08:23:02;;;;;;;6.95;3.97;;;;;;;;;;5076334;28;20031;-83
2021/08/10 08:25:28;;;;;;;11.32;4.70;;;;;;;;;;5076192;28;20025;-76
2021/08/10 08:27:54;;;;;;;9.85;4.45;;;;;;;;;;5077405;28;20024;-75
2021/08/10 08:30:20;;;;;;;19.88;4.50;;;;;;;;;;5075826;28;20096;-76
2021/08/10 08:32:46;;;;;;;12.35;4.63;;;;;;;;;;5077542;28;20032;-76
2021/08/10 08:35:12;;;;;;;16.17;4.88;;;;;;;;;;5078017;28;20021;-78
2021/08/10 08:37:39;;;;;;;18.92;5.22;;;;;;;;;;5077464;28;20355;-84
2021/08/10 08:40:05;;;;;;;21.38;4.88;;;;;;;;;;5079473;28;20024;-89
2021/08/10 08:42:32;;;;;;;12.18;4.45;;;;;;;;;;5079041;28;20021;-87
2021/08/10 08:44:58;;;;;;;12.65;3.88;;;;;;;;;;5078654;28;20470;-82
2021/08/10 08:47:24;;;;;;;9.13;4.22;;;;;;;;;;5078573;28;20071;-77
2021/08/10 08:49:50;;;;;;;15.43;5.38;;;;;;;;;;5077424;28;20024;-78
2021/08/10 08:52:16;;;;;;;7.60;4.68;;;;;;;;;;5077481;28;20493;-79
2021/08/10 08:54:42;;;;;;;15.30;4.13;;;;;;;;;;5077426;28;20048;-79
2021/08/10 08:57:09;;;;;;;8.70;4.25;;;;;;;;;;5076668;28;20096;-78
2021/08/10 08:59:35;;;;;;;6.43;3.88;;;;;;;;;;5076360;28;20036;-82
2021/08/10 09:02:01;;;;;;;13.45;5.32;;;;;;;;;;5078234;28;20021;-79
2021/08/10 09:04:27;;;;;;;19.25;4.00;;;;;;;;;;5077350;28;20025;-79
2021/08/10 09:06:54;;;;;;;8.32;3.55;;;;;;;;;;5077187;28;20412;-94
2021/08/10 09:09:25;;;;;;;12.18;4.72;;;;;;;;;;5077227;28;20374;-80
2021/08/10 09:11:52;;;;;;;14.20;6.05;;;;;;;;;;5075889;28;20036;-79
2021/08/10 09:14:19;;;;;;;5.75;3.60;;;;;;;;;;5075985;28;20052;-77
2021/08/10 09:17:05;;;;;;;13.95;5.07;;;;;;;;;;5076413;28;20067;-79
2021/08/10 09:19:52;;;;;;;17.85;4.15;;;;;;;;;;5061899;28;20024;-80
2021/08/10 09:22:21;;;;;;;9.45;4.82;;;;;;;;;;5062939;28;20025;-82
2021/08/10 09:24:51;;;;;;;11.93;3.40;;;;;;;;;;5077218;28;20024;-79
2021/08/10 09:27:37;;;;;;;6.32;4.10;;;;;;;;;;5075469;28;20111;-78
2021/08/10 09:30:03;;;;;;;10.35;4.25;;;;;;;;;;5077026;28;20035;-79
2021/08/10 09:32:29;;;;;;;11.13;3.72;;;;;;;;;;5075939;28;20075;-81
2021/08/10 09:35:13;;;;;;;9.27;3.35;;;;;;;;;;5076993;28;20107;-79
2021/08/10 09:37:39;;;;;;;5.80;3.72;;;;;;;;;;5075186;28;20025;-78
2021/08/10 09:40:25;;;;;;;4.22;3.20;;;;;;;;;;5075115;28;20082;-79
2021/08/10 09:42:51;;;;;;;4.88;3.38;;;;;;;;;;5061945;28;20031;-77
2021/08/10 09:45:17;;;;;;;4.97;3.28;;;;;;;;;;5075338;28;20481;-76
2021/08/10 09:47:43;;;;;;;14.70;3.58;;;;;;;;;;5076366;28;20390;-76
2021/08/10 09:50:26;;;;;;;8.73;2.80;;;;;;;;;;5075689;28;20044;-78
2021/08/10 09:52:52;;;;;;;7.28;3.03;;;;;;;;;;5075382;28;20024;-74
2021/08/10 09:55:18;;;;;;;3.35;3.05;;;;;;;;;;5075003;28;20060;-75
2021/08/10 09:58:00;;;;;;;9.40;3.80;;;;;;;;;;5074908;28;20032;-75
2021/08/10 10:00:26;;;;;;;;;;;;;;;;;;5073770;28;20031;-76
2021/08/10 10:02:53;;;;;;;4.75;3.20;;;;;;;;;;5074018;28;20264;-75
2021/08/10 10:05:19;;;;;;;5.88;3.38;;;;;;;;;;5074092;28;20110;-76
2021/08/10 10:07:49;;;;;;;5.70;3.42;;;;;;;;;;5073769;28;20381;-79
2021/08/10 10:10:15;;;;;;;5.73;3.07;;;;;;;;;;5073668;28;20070;-78
2021/08/10 10:12:42;;;;;;;4.00;3.70;;;;;;;;;;5073794;28;20040;-76
2021/08/10 10:15:08;;;;;;;5.63;3.83;;;;;;;;;;5073967;28;20021;-78
2021/08/10 10:17:34;;;;;;;8.45;3.40;;;;;;;;;;5073887;28;20032;-78
2021/08/10 10:20:01;;;;;;;4.40;3.20;;;;;;;;;;5073748;28;20024;-80
2021/08/10 10:22:28;;;;;;;4.32;2.90;;;;;;;;;;5073160;28;20025;-89
2021/08/10 10:24:54;;;;;;;3.40;2.88;;;;;;;;;;5074246;28;20029;-84
2021/08/10 10:27:21;;;;;;;3.85;3.15;;;;;;;;;;5073636;28;20021;-75
2021/08/10 10:29:47;;;;;;;7.25;3.00;;;;;;;;;;5073320;28;20029;-77
2021/08/10 10:32:13;;;;;;;3.20;2.90;;;;;;;;;;5073721;28;20099;-79
2021/08/10 10:34:39;;;;;;;9.00;3.50;;;;;;;;;;5074051;28;20039;-79
2021/08/10 10:37:05;;;;;;;8.27;3.15;;;;;;;;;;5073443;28;20025;-79
2021/08/10 10:39:32;;;;;;;6.90;4.78;;;;;;;;;;5073847;28;20462;-78
2021/08/10 10:41:59;;;;;;;4.85;2.92;;;;;;;;;;5073137;28;20063;-78
2021/08/10 10:44:41;;;;;;;6.20;3.30;;;;;;;;;;5073377;28;20017;-80
2021/08/10 10:47:29;;;;;;;7.20;3.20;;;;;;;;;;5073686;28;20469;-77
2021/08/10 10:50:15;;;;;;;18.25;3.45;;;;;;;;;;5058350;28;20028;-75
2021/08/10 10:52:41;;;;;;;9.00;3.42;;;;;;;;;;5058802;28;20032;-79
2021/08/10 10:55:07;;;;;;;7.25;3.78;;;;;;;;;;5076242;28;20067;-76
2021/08/10 10:57:35;;;;;;;7.28;3.28;;;;;;;;;;5078116;28;20136;-77
2021/08/10 11:00:21;;;;;;;4.05;3.25;;;;;;;;;;5077320;28;20017;-78
2021/08/10 11:03:07;;;;;;;9.30;3.67;;;;;;;;;;5062748;28;20025;-78
2021/08/10 11:05:33;;;;;;;5.07;3.33;;;;;;;;;;5062246;28;20150;-79
2021/08/10 11:08:00;;;;;;;7.03;3.03;;;;;;;;;;5077193;28;20099;-77
2021/08/10 11:10:42;;;;;;;4.03;3.22;;;;;;;;;;5078573;28;20028;-78
2021/08/10 11:13:28;;;;;;;4.40;3.08;;;;;;;;;;5078568;28;20033;-79
2021/08/10 11:15:55;;;;;;;6.80;3.33;;;;;;;;;;5062153;28;20166;-77
2021/08/10 11:18:22;;;;;;;5.03;3.25;;;;;;;;;;5077233;28;20350;-78
2021/08/10 11:20:52;;;;;;;9.73;2.78;;;;;;;;;;5076877;28;20112;-78
2021/08/10 11:23:31;;;;;;;9.82;3.47;;;;;;;;;;5077415;28;20083;-79
2021/08/10 11:26:17;;;;;;;9.45;3.80;;;;;;;;;;5076484;28;20078;-77
2021/08/10 11:28:50;;;;;;;4.50;3.22;;;;;;;;;;5062521;28;20036;-73
2021/08/10 11:31:34;;;;;;;9.48;4.50;;;;;;;;;;5076873;28;20036;-76
2021/08/10 11:34:00;;;;;;;7.05;3.83;;;;;;;;;;5076513;28;20020;-78
2021/08/10 11:36:26;;;;;;;10.10;4.47;;;;;;;;;;5076142;28;20020;-76
2021/08/10 11:39:04;;;;;;;24.67;4.63;;;;;;;;;;5076680;28;20064;-75
2021/08/10 11:41:31;;;;;;;21.25;6.25;;;;;;;;;;5076447;28;20020;-74
2021/08/10 11:43:58;;;;;;;21.38;6.15;;;;;;;;;;5076325;28;20056;-75
2021/08/10 11:46:34;;;;;;;21.85;5.53;;;;;;;;;;5076618;28;20028;-76
2021/08/10 11:49:01;;;;;;;24.08;7.10;;;;;;;;;;5076338;28;20116;-76
2021/08/10 11:51:28;;;;;;;21.38;6.70;;;;;;;;;;5076209;28;20028;-73
2021/08/10 11:53:55;;;;;;;25.17;8.50;;;;;;;;;;5076149;28;20044;-76
2021/08/10 11:56:24;;;;;;;34.97;8.15;;;;;;;;;;5075893;28;20052;-78
2021/08/10 11:58:50;;;;;;;28.52;8.70;;;;;;;;;;5076403;28;20016;-78
2021/08/10 12:01:16;;;;;;;33.85;10.85;;;;;;;;;;5075994;28;20120;-78
2021/08/10 12:03:42;;;;;;;23.67;7.97;;;;;;;;;;5076791;28;20370;-75
2021/08/10 12:06:08;;;;;;;25.33;8.43;;;;;;;;;;5076816;28;20048;-75
2021/08/10 12:08:34;;;;;;;29.35;11.60;;;;;;;;;;5077790;28;20047;-77
2021/08/10 12:11:00;;;;;;;40.10;8.23;;;;;;;;;;5075827;28;20051;-76
2021/08/10 12:13:27;;;;;;;29.95;8.90;;;;;;;;;;5076245;28;20381;-73
2021/08/10 12:15:54;;;;;;;23.25;9.10;;;;;;;;;;5075954;28;20101;-75
2021/08/10 12:18:20;;;;;;;30.88;10.07;;;;;;;;;;5075330;28;20055;-75
2021/08/10 12:21:02;;;;;;;34.53;9.90;;;;;;;;;;5075732;28;20416;-75
2021/08/10 12:23:28;;;;;;;;;;;;;;;;;;5076525;28;20029;-75
2021/08/10 12:25:54;;;;;;;21.17;7.57;;;;;;;;;;5075765;28;20006;-84
2021/08/10 12:28:20;;;;;;;27.23;8.98;;;;;;;;;;5075945;28;20115;-82
2021/08/10 12:30:47;;;;;;;21.05;8.02;;;;;;;;;;5075630;28;20020;-77
2021/08/10 12:33:14;;;;;;;25.65;8.82;;;;;;;;;;5075841;28;20029;-76
2021/08/10 12:35:55;;;;;;;26.30;9.05;;;;;;;;;;5075569;28;20492;-77
2021/08/10 12:38:22;;;;;;;25.33;8.27;;;;;;;;;;5075459;28;20530;-78
2021/08/10 12:40:48;;;;;;;32.58;9.95;;;;;;;;;;5075975;28;20056;-78
2021/08/10 12:43:14;;;;;;;31.90;8.65;;;;;;;;;;5075417;28;20036;-79
2021/08/10 12:45:40;;;;;;;29.10;8.48;;;;;;;;;;5075744;28;20029;-76
2021/08/10 12:48:26;;;;;;;16.85;8.63;;;;;;;;;;5075483;28;20028;-82
2021/08/10 12:50:54;;;;;;;23.15;8.75;;;;;;;;;;5060235;28;20466;-78
2021/08/10 12:53:28;;;;;;;23.27;8.45;;;;;;;;;;5075519;28;20039;-78
2021/08/10 12:55:54;;;;;;;21.13;7.45;;;;;;;;;;5074909;28;20055;-74
2021/08/10 12:58:20;;;;;;;20.00;8.40;;;;;;;;;;5075344;28;20359;-76
2021/08/10 13:01:04;;;;;;;18.85;7.50;;;;;;;;;;5074952;28;20078;-76
2021/08/10 13:03:31;;;;;;;22.00;8.20;;;;;;;;;;5075338;28;20107;-74
2021/08/10 13:05:58;;;;;;;19.17;8.23;;;;;;;;;;5074761;28;20473;-75
2021/08/10 13:08:24;;;;;;;20.27;8.38;;;;;;;;;;5074130;28;20398;-76
2021/08/10 13:10:50;;;;;;;22.48;7.97;;;;;;;;;;5075047;28;20383;-76
2021/08/10 13:13:31;;;;;;;26.48;7.95;;;;;;;;;;5074780;28;20051;-78
2021/08/10 13:15:59;;;;;;;17.88;7.57;;;;;;;;;;5075177;28;20021;-76
2021/08/10 13:18:27;;;;;;;22.33;8.40;;;;;;;;;;5074340;28;20025;-78
2021/08/10 13:20:56;;;;;;;14.38;7.30;;;;;;;;;;5074324;28;20496;-77
2021/08/10 13:23:22;;;;;;;22.02;8.30;;;;;;;;;;5074825;28;20052;-76
2021/08/10 13:25:52;;;;;;;20.42;6.95;;;;;;;;;;5075138;28;20025;-85
2021/08/10 13:28:18;;;;;;;21.35;7.82;;;;;;;;;;5074186;28;20433;-80
2021/08/10 13:30:44;;;;;;;20.15;8.05;;;;;;;;;;5074692;28;20032;-77
2021/08/10 13:33:17;;;;;;;21.23;7.63;;;;;;;;;;5074415;28;20504;-87
2021/08/10 13:35:44;;;;;;;17.05;7.28;;;;;;;;;;5074383;28;20389;-82
2021/08/10 13:38:10;;;;;;;12.20;7.32;;;;;;;;;;5074326;28;20031;-80
2021/08/10 13:40:36;;;;;;;16.25;7.05;;;;;;;;;;5074253;28;20031;-81
2021/08/10 13:43:03;;;;;;;14.88;6.85;;;;;;;;;;5074183;28;20020;-80
2021/08/10 13:45:29;;;;;;;18.60;7.70;;;;;;;;;;5074428;28;20466;-77
2021/08/10 13:47:56;;;;;;;17.50;8.18;;;;;;;;;;5074273;28;20028;-79
2021/08/10 13:50:22;;;;;;;20.02;9.00;;;;;;;;;;5073989;28;20024;-75
2021/08/10 13:52:48;;;;;;;19.80;8.18;;;;;;;;;;5074492;28;20070;-79
2021/08/10 13:55:15;;;;;;;19.33;7.47;;;;;;;;;;5074320;28;20052;-76
2021/08/10 13:57:43;;;;;;;16.55;7.00;;;;;;;;;;5074389;28;20031;-76
2021/08/10 14:00:09;;;;;;;15.57;8.68;;;;;;;;;;5073913;28;20025;-78
2021/08/10 14:02:37;;;;;;;17.83;8.07;;;;;;;;;;5074205;28;20420;-78
2021/08/10 14:05:04;;;;;;;25.92;8.90;;;;;;;;;;5073864;28;20453;-76
2021/08/10 14:07:30;;;;;;;23.60;9.13;;;;;;;;;;5074069;28;20446;-76
2021/08/10 14:09:56;;;;;;;17.60;7.82;;;;;;;;;;5074218;28;20042;-75
2021/08/10 14:12:22;;;;;;;12.55;7.13;;;;;;;;;;5073420;28;20024;-76
2021/08/10 14:14:48;;;;;;;19.08;8.07;;;;;;;;;;5074273;28;20058;-76
2021/08/10 14:17:14;;;;;;;15.48;7.13;;;;;;;;;;5074042;28;20379;-76
2021/08/10 14:19:40;;;;;;;14.75;7.03;;;;;;;;;;5073684;28;20024;-76
2021/08/10 14:22:06;;;;;;;11.73;6.75;;;;;;;;;;5073636;28;20029;-76
2021/08/10 14:24:32;;;;;;;10.52;6.78;;;;;;;;;;5073824;28;20116;-76
2021/08/10 14:27:00;;;;;;;16.58;7.72;;;;;;;;;;5073699;28;20081;-77
2021/08/10 14:29:26;;;;;;;22.30;8.98;;;;;;;;;;5073436;28;20363;-78
2021/08/10 14:31:53;;;;;;;9.45;5.97;;;;;;;;;;5073635;28;20032;-79
2021/08/10 14:34:19;;;;;;;14.23;5.82;;;;;;;;;;5073299;28;20493;-79
2021/08/10 14:36:46;;;;;;;9.35;4.10;;;;;;;;;;5074261;28;20021;-77
2021/08/10 14:39:12;;;;;;;6.28;3.53;;;;;;;;;;5074111;28;20369;-81